createdAt,value
2023-05-09T03:42:19.266Z,0.00
2023-05-09T03:43:19.250Z,0.24
2023-05-09T03:44:19.241Z,1.55
2023-05-09T03:45:19.249Z,0.20
2023-05-09T03:46:19.244Z,1.60
2023-05-09T03:47:19.208Z,0.08
2023-05-09T03:48:19.211Z,1.20
2023-05-09T03:49:19.190Z,0.04
2023-05-09T03:50:19.174Z,0.12
2023-05-09T03:51:19.166Z,4.03
2023-05-09T03:52:19.163Z,6.59
2023-05-09T03:53:19.260Z,1.84
2023-05-09T03:54:19.134Z,7.11
2023-05-09T03:55:19.125Z,0.80
2023-05-09T03:56:19.112Z,0.28
2023-05-09T03:57:19.103Z,0.32
2023-05-09T03:58:19.093Z,0.04
2023-05-09T03:59:19.081Z,6.63
2023-05-09T04:00:19.073Z,6.23
2023-05-09T04:01:19.061Z,5.03
2023-05-09T04:02:19.093Z,2.88
2023-05-09T04:03:19.131Z,0.36
2023-05-09T04:04:19.029Z,0.04
2023-05-09T04:05:19.029Z,0.00
2023-05-09T04:06:19.012Z,0.08
2023-05-09T04:07:18.996Z,0.00
2023-05-09T04:08:18.981Z,5.15
2023-05-09T04:09:19.108Z,4.55
2023-05-09T04:10:18.969Z,1.00
2023-05-09T04:11:19.173Z,3.31
2023-05-09T04:12:18.943Z,4.00
2023-05-09T04:13:18.949Z,0.00
2023-05-09T04:14:18.927Z,5.80
2023-05-09T04:15:18.917Z,11.11
2023-05-09T04:16:18.903Z,6.67
2023-05-09T04:17:18.895Z,8.39
2023-05-09T04:18:18.878Z,6.23
2023-05-09T04:19:19.107Z,7.52
2023-05-09T04:20:18.865Z,9.96
2023-05-09T04:21:18.848Z,8.68
2023-05-09T04:22:18.835Z,7.15
2023-05-09T04:23:18.832Z,6.48
2023-05-09T04:24:18.816Z,1.88
2023-05-09T04:25:18.925Z,5.48
2023-05-09T04:26:18.795Z,6.84
2023-05-09T04:27:18.788Z,5.96
2023-05-09T04:28:18.772Z,5.40
2023-05-09T04:29:18.963Z,10.39
2023-05-09T04:30:18.752Z,11.00
2023-05-09T04:31:18.850Z,5.40
2023-05-09T04:32:18.771Z,11.39
2023-05-09T04:33:18.722Z,8.72
2023-05-09T04:34:18.709Z,10.64
2023-05-09T04:35:20.485Z,9.23
2023-05-09T04:36:18.904Z,1.48
2023-05-09T04:37:18.682Z,2.48
2023-05-09T04:38:18.675Z,4.00
2023-05-09T04:39:18.656Z,8.88
2023-05-09T04:40:18.648Z,4.11
2023-05-09T04:41:18.752Z,12.52
2023-05-09T04:42:18.622Z,10.23
2023-05-09T04:43:18.613Z,2.76
2023-05-09T04:44:18.601Z,3.03
2023-05-09T04:45:18.596Z,7.59
2023-05-09T04:46:18.598Z,7.32
2023-05-09T04:47:18.784Z,8.19
2023-05-09T04:48:18.573Z,7.44
2023-05-09T04:49:18.558Z,12.43
2023-05-09T04:50:18.542Z,10.35
2023-05-09T04:51:18.527Z,11.31
2023-05-09T04:52:18.526Z,8.11
2023-05-09T04:53:18.507Z,10.39
2023-05-09T04:54:18.500Z,14.76
2023-05-09T04:55:18.483Z,13.60
2023-05-09T04:56:18.479Z,11.64
2023-05-09T04:57:19.269Z,12.72
2023-05-09T04:58:18.464Z,9.15
2023-05-09T04:59:18.454Z,13.88
2023-05-09T05:00:18.509Z,13.11
2023-05-09T05:01:18.453Z,11.23
2023-05-09T05:02:18.411Z,9.68
2023-05-09T05:03:18.402Z,9.88
2023-05-09T05:04:18.630Z,11.07
2023-05-09T05:05:24.666Z,13.60
2023-05-09T05:06:19.401Z,13.03
2023-05-09T05:07:18.359Z,9.19
2023-05-09T05:08:18.353Z,9.39
2023-05-09T05:09:18.535Z,6.80
2023-05-09T05:10:18.332Z,7.44
2023-05-09T05:11:18.312Z,8.56
2023-05-09T05:12:18.305Z,4.80
2023-05-09T05:13:18.526Z,1.55
2023-05-09T05:14:18.292Z,7.80
2023-05-09T05:15:18.483Z,0.12
2023-05-09T05:16:18.288Z,7.96
2023-05-09T05:17:18.426Z,10.47
2023-05-09T05:18:18.243Z,7.40
2023-05-09T05:19:18.229Z,5.52
2023-05-09T05:20:18.221Z,7.92
2023-05-09T05:21:18.206Z,10.43
2023-05-09T05:22:18.201Z,7.28
2023-05-09T05:23:18.410Z,6.96
2023-05-09T05:24:18.175Z,3.27
2023-05-09T05:25:18.365Z,8.88
2023-05-09T05:26:18.158Z,8.11
2023-05-09T05:27:18.143Z,9.19
2023-05-09T05:28:18.136Z,6.59
2023-05-09T05:29:18.246Z,7.19
2023-05-09T05:30:18.121Z,9.07
2023-05-09T05:31:18.166Z,5.71
2023-05-09T05:32:18.098Z,8.47
2023-05-09T05:33:18.080Z,9.43
2023-05-09T05:34:18.073Z,7.88
2023-05-09T05:35:18.061Z,10.07
2023-05-09T05:36:18.059Z,5.96
2023-05-09T05:37:18.051Z,6.32
2023-05-09T05:38:18.023Z,6.80
2023-05-09T05:39:18.024Z,5.11
2023-05-09T05:40:18.003Z,7.80
2023-05-09T05:41:17.985Z,6.11
2023-05-09T05:42:18.189Z,10.27
2023-05-09T05:43:17.968Z,8.92
2023-05-09T05:44:17.962Z,10.19
2023-05-09T05:45:18.120Z,8.39
2023-05-09T05:46:18.032Z,7.80
2023-05-09T05:47:17.928Z,13.23
2023-05-09T05:48:17.912Z,11.07
2023-05-09T05:49:17.904Z,7.32
2023-05-09T05:50:17.890Z,4.03
2023-05-09T05:51:17.877Z,9.60
2023-05-09T05:52:17.870Z,6.15
2023-05-09T05:53:17.858Z,5.92
2023-05-09T05:54:17.847Z,8.56
2023-05-09T05:55:17.990Z,8.96
2023-05-09T05:56:17.830Z,9.56
2023-05-09T05:57:17.820Z,7.19
2023-05-09T05:58:17.807Z,6.32
2023-05-09T05:59:17.792Z,5.59
2023-05-09T06:00:17.796Z,1.32
2023-05-09T06:01:17.790Z,4.03
2023-05-09T06:02:17.810Z,6.92
2023-05-09T06:03:17.823Z,6.32
2023-05-09T06:04:17.805Z,3.68
2023-05-09T06:05:17.729Z,7.88
2023-05-09T06:06:17.720Z,11.80
2023-05-09T06:07:17.708Z,12.76
2023-05-09T06:08:19.198Z,8.60
2023-05-09T06:09:17.689Z,3.35
2023-05-09T06:10:17.684Z,4.07
2023-05-09T06:11:17.666Z,14.76
2023-05-09T06:12:17.663Z,11.96
2023-05-09T06:13:17.708Z,8.07
2023-05-09T06:14:17.644Z,7.71
2023-05-09T06:15:17.846Z,6.07
2023-05-09T06:16:19.938Z,1.44
2023-05-09T06:17:18.103Z,6.11
2023-05-09T06:18:17.792Z,9.15
2023-05-09T06:19:17.581Z,8.43
2023-05-09T06:20:17.569Z,4.67
2023-05-09T06:21:17.564Z,6.80
2023-05-09T06:22:17.755Z,5.55
2023-05-09T06:23:17.535Z,11.72
2023-05-09T06:24:31.858Z,12.56
2023-05-09T06:25:18.547Z,12.00
2023-05-09T06:26:17.509Z,11.39
2023-05-09T06:27:17.494Z,10.31
2023-05-09T06:28:17.482Z,12.31
2023-05-09T06:29:17.470Z,10.96
2023-05-09T06:30:25.607Z,8.68
2023-05-09T06:31:18.504Z,11.35
2023-05-09T06:32:17.441Z,4.96
2023-05-09T06:33:17.547Z,6.96
2023-05-09T06:34:17.421Z,11.23
2023-05-09T06:35:17.409Z,15.88
2023-05-09T06:36:17.397Z,14.39
2023-05-09T06:37:17.393Z,11.19
2023-05-09T06:38:17.381Z,11.47
2023-05-09T06:39:17.367Z,12.60
2023-05-09T06:40:17.388Z,8.07
2023-05-09T06:41:17.355Z,10.11
2023-05-09T06:42:17.332Z,7.52
2023-05-09T06:43:17.320Z,12.00
2023-05-09T06:44:17.309Z,11.47
2023-05-09T06:45:17.646Z,8.96
2023-05-09T06:46:17.314Z,7.32
2023-05-09T06:47:17.280Z,8.64
2023-05-09T06:48:17.265Z,2.64
2023-05-09T06:49:17.473Z,6.84
2023-05-09T06:50:17.243Z,7.80
2023-05-09T06:51:17.230Z,10.27
2023-05-09T06:52:17.227Z,9.72
2023-05-09T06:53:17.215Z,11.88
2023-05-09T06:54:17.200Z,8.88
2023-05-09T06:55:17.369Z,8.76
2023-05-09T06:56:19.491Z,8.15
2023-05-09T06:57:17.164Z,5.52
2023-05-09T06:58:17.162Z,0.16
2023-05-09T06:59:17.140Z,6.07
2023-05-09T07:00:17.137Z,6.44
2023-05-09T07:01:17.148Z,9.39
2023-05-09T07:02:17.311Z,12.88
2023-05-09T07:03:17.111Z,10.64
2023-05-09T07:04:17.114Z,10.64
2023-05-09T07:05:17.562Z,8.23
2023-05-09T07:06:17.079Z,11.56
2023-05-09T07:07:17.063Z,13.96
2023-05-09T07:08:17.053Z,12.64
2023-05-09T07:09:17.042Z,7.71
2023-05-09T07:10:17.027Z,6.84
2023-05-09T07:11:17.018Z,8.60
2023-05-09T07:12:17.008Z,9.96
2023-05-09T07:13:17.038Z,8.39
2023-05-09T07:14:16.987Z,11.96
2023-05-09T07:15:28.792Z,9.52
2023-05-09T07:16:18.052Z,10.43
2023-05-09T07:17:23.295Z,9.88
2023-05-09T07:18:17.974Z,10.39
2023-05-09T07:19:16.940Z,10.80
2023-05-09T07:20:16.931Z,11.72
2023-05-09T07:21:17.027Z,7.67
2023-05-09T07:22:16.966Z,5.44
2023-05-09T07:23:16.894Z,7.03
2023-05-09T07:24:16.886Z,6.96
2023-05-09T07:25:17.052Z,9.23
2023-05-09T07:26:16.861Z,7.67
2023-05-09T07:27:16.852Z,10.56
2023-05-09T07:28:16.844Z,14.00
2023-05-09T07:29:16.829Z,14.72
2023-05-09T07:30:17.077Z,11.72
2023-05-09T07:31:16.817Z,13.27
2023-05-09T07:32:16.830Z,10.92
2023-05-09T07:33:16.785Z,15.00
2023-05-09T07:34:16.780Z,11.68
2023-05-09T07:35:16.973Z,13.52
2023-05-09T07:36:16.752Z,14.84
2023-05-09T07:37:16.859Z,12.03
2023-05-09T07:38:16.740Z,6.07
2023-05-09T07:39:16.719Z,6.63
2023-05-09T07:40:17.000Z,9.00
2023-05-09T07:41:16.697Z,10.11
2023-05-09T07:42:16.707Z,13.56
2023-05-09T07:43:16.689Z,13.60
2023-05-09T07:44:16.677Z,10.60
2023-05-09T07:45:17.094Z,13.52
2023-05-09T07:46:16.683Z,11.60
2023-05-09T07:47:16.635Z,10.52
2023-05-09T07:48:16.624Z,12.52
2023-05-09T07:49:16.607Z,13.96
2023-05-09T07:50:16.603Z,13.96
2023-05-09T07:51:16.589Z,15.31
2023-05-09T07:52:16.587Z,7.80
2023-05-09T07:53:16.892Z,7.96
2023-05-09T07:54:16.563Z,14.80
2023-05-09T07:55:16.803Z,9.07
2023-05-09T07:56:16.549Z,14.84
2023-05-09T07:57:16.526Z,12.07
2023-05-09T07:58:16.515Z,11.11
2023-05-09T07:59:16.509Z,12.19
2023-05-09T08:00:16.583Z,14.27
2023-05-09T08:01:16.480Z,11.60
2023-05-09T08:02:16.530Z,14.03
2023-05-09T08:03:16.584Z,14.35
2023-05-09T08:04:16.471Z,12.07
2023-05-09T08:05:16.697Z,13.56
2023-05-09T08:06:16.434Z,12.96
2023-05-09T08:07:16.523Z,10.88
2023-05-09T08:08:16.406Z,7.80
2023-05-09T08:09:16.513Z,13.52
2023-05-09T08:10:16.404Z,14.72
2023-05-09T08:11:16.376Z,14.07
2023-05-09T08:12:16.412Z,12.76
2023-05-09T08:13:16.368Z,13.27
2023-05-09T08:14:16.349Z,13.03
2023-05-09T08:15:16.873Z,14.00
2023-05-09T08:16:16.397Z,14.52
2023-05-09T08:17:16.315Z,14.19
2023-05-09T08:18:16.305Z,10.00
2023-05-09T08:19:16.295Z,11.35
2023-05-09T08:20:16.286Z,13.56
2023-05-09T08:21:16.273Z,13.43
2023-05-09T08:22:16.265Z,10.88
2023-05-09T08:23:16.254Z,14.03
2023-05-09T08:24:16.248Z,12.52
2023-05-09T08:25:16.583Z,11.56
2023-05-09T08:26:16.228Z,10.52
2023-05-09T08:27:16.217Z,10.19
2023-05-09T08:28:16.403Z,7.71
2023-05-09T08:29:16.192Z,8.15
2023-05-09T08:30:16.183Z,9.11
2023-05-09T08:31:16.250Z,9.39
2023-05-09T08:32:16.162Z,10.72
2023-05-09T08:33:16.149Z,11.31
2023-05-09T08:34:16.166Z,5.15
2023-05-09T08:35:16.460Z,13.27
2023-05-09T08:36:16.120Z,14.31
2023-05-09T08:37:16.127Z,11.15
2023-05-09T08:38:16.108Z,8.80
2023-05-09T08:39:16.084Z,12.31
2023-05-09T08:40:16.357Z,14.68
2023-05-09T08:41:16.185Z,6.88
2023-05-09T08:42:16.081Z,3.88
2023-05-09T08:43:16.052Z,6.32
2023-05-09T08:44:16.037Z,10.72
2023-05-09T08:45:16.021Z,14.43
2023-05-09T08:46:16.036Z,14.52
2023-05-09T08:47:16.013Z,14.92
2023-05-09T08:48:16.197Z,15.11
2023-05-09T08:49:15.983Z,15.00
2023-05-09T08:50:16.259Z,10.84
2023-05-09T08:51:15.964Z,14.76
2023-05-09T08:52:15.949Z,6.48
2023-05-09T08:53:15.944Z,13.88
2023-05-09T08:54:15.926Z,14.00
2023-05-09T08:55:15.920Z,13.39
2023-05-09T08:56:16.107Z,12.52
2023-05-09T08:57:16.023Z,14.19
2023-05-09T08:58:15.889Z,13.00
2023-05-09T08:59:15.874Z,11.68
2023-05-09T09:00:17.956Z,11.56
2023-05-09T09:01:15.874Z,7.00
2023-05-09T09:02:15.919Z,5.92
2023-05-09T09:03:15.874Z,10.47
2023-05-09T09:04:15.984Z,10.39
2023-05-09T09:05:39.427Z,11.84
2023-05-09T09:06:17.039Z,7.03
2023-05-09T09:07:15.791Z,3.11
2023-05-09T09:08:15.984Z,7.00
2023-05-09T09:09:15.771Z,15.35
2023-05-09T09:10:15.934Z,12.03
2023-05-09T09:11:15.749Z,13.31
2023-05-09T09:12:15.758Z,13.35
2023-05-09T09:13:15.791Z,12.35
2023-05-09T09:14:15.723Z,10.52
2023-05-09T09:15:17.328Z,14.64
2023-05-09T09:16:15.715Z,13.27
2023-05-09T09:17:15.688Z,10.92
2023-05-09T09:18:15.678Z,14.47
2023-05-09T09:19:15.667Z,13.56
2023-05-09T09:20:15.866Z,14.96
2023-05-09T09:21:15.649Z,11.43
2023-05-09T09:22:15.649Z,14.52
2023-05-09T09:23:15.629Z,11.96
2023-05-09T09:24:15.619Z,14.07
2023-05-09T09:25:15.610Z,14.27
2023-05-09T09:26:15.603Z,14.56
2023-05-09T09:27:15.592Z,14.43
2023-05-09T09:28:15.571Z,14.92
2023-05-09T09:29:15.752Z,14.76
2023-05-09T09:30:15.762Z,13.39
2023-05-09T09:31:17.176Z,14.80
2023-05-09T09:32:15.614Z,14.92
2023-05-09T09:33:15.587Z,15.60
2023-05-09T09:34:15.512Z,13.23
2023-05-09T09:35:15.503Z,14.72
2023-05-09T09:36:15.491Z,13.35
2023-05-09T09:37:15.490Z,12.35
2023-05-09T09:38:15.489Z,9.92
2023-05-09T09:39:15.475Z,9.60
2023-05-09T09:40:15.670Z,8.15
2023-05-09T09:41:15.461Z,11.47
2023-05-09T09:42:15.429Z,14.68
2023-05-09T09:43:15.422Z,13.03
2023-05-09T09:44:15.417Z,12.56
2023-05-09T09:45:15.534Z,12.92
2023-05-09T09:46:15.650Z,13.96
2023-05-09T09:47:15.384Z,7.00
2023-05-09T09:48:15.373Z,11.68
2023-05-09T09:49:15.356Z,12.07
2023-05-09T09:50:15.526Z,13.11
2023-05-09T09:51:15.344Z,6.84
2023-05-09T09:52:15.327Z,8.39
2023-05-09T09:53:15.319Z,16.79
2023-05-09T09:54:15.327Z,13.72
2023-05-09T09:55:15.305Z,12.92
2023-05-09T09:56:15.292Z,13.31
2023-05-09T09:57:15.282Z,15.07
2023-05-09T09:58:15.265Z,14.92
2023-05-09T09:59:15.255Z,15.23
2023-05-09T10:00:15.368Z,15.31
2023-05-09T10:01:15.408Z,15.19
2023-05-09T10:02:15.221Z,13.68
2023-05-09T10:03:15.331Z,14.03
2023-05-09T10:04:15.269Z,13.84
2023-05-09T10:05:15.197Z,8.68
2023-05-09T10:06:15.178Z,10.60
2023-05-09T10:07:15.347Z,11.15
2023-05-09T10:08:15.165Z,14.03
2023-05-09T10:09:15.151Z,12.56
2023-05-09T10:10:15.373Z,8.15
2023-05-09T10:11:15.131Z,7.59
2023-05-09T10:12:15.117Z,9.96
2023-05-09T10:13:15.144Z,13.84
2023-05-09T10:14:15.110Z,13.11
2023-05-09T10:15:15.090Z,6.52
2023-05-09T10:16:15.128Z,7.07
2023-05-09T10:17:15.361Z,14.00
2023-05-09T10:18:15.413Z,13.92
2023-05-09T10:19:15.049Z,6.80
2023-05-09T10:20:15.290Z,8.43
2023-05-09T10:21:15.030Z,10.96
2023-05-09T10:22:15.015Z,10.80
2023-05-09T10:23:15.006Z,9.80
2023-05-09T10:24:15.001Z,13.47
2023-05-09T10:25:15.250Z,11.56
2023-05-09T10:26:14.970Z,13.60
2023-05-09T10:27:14.970Z,14.52
2023-05-09T10:28:14.953Z,12.60
2023-05-09T10:29:14.945Z,11.35
2023-05-09T10:30:14.930Z,13.47
2023-05-09T10:31:14.950Z,14.88
2023-05-09T10:32:14.911Z,12.27
2023-05-09T10:33:15.025Z,14.15
2023-05-09T10:34:14.891Z,16.23
2023-05-09T10:35:15.023Z,14.47
2023-05-09T10:36:14.869Z,15.23
2023-05-09T10:37:14.858Z,16.36
2023-05-09T10:38:14.847Z,15.68
2023-05-09T10:39:14.834Z,12.27
2023-05-09T10:40:14.827Z,10.43
2023-05-09T10:41:14.818Z,13.47
2023-05-09T10:42:14.803Z,11.15
2023-05-09T10:43:14.802Z,12.43
2023-05-09T10:44:14.787Z,14.00
2023-05-09T10:45:15.002Z,9.35
2023-05-09T10:46:14.809Z,10.07
2023-05-09T10:47:14.753Z,11.27
2023-05-09T10:48:14.747Z,5.67
2023-05-09T10:49:14.847Z,4.92
2023-05-09T10:50:14.722Z,7.96
2023-05-09T10:51:14.720Z,10.03
2023-05-09T10:52:14.702Z,14.56
2023-05-09T10:53:14.688Z,13.07
2023-05-09T10:54:14.678Z,0.68
2023-05-09T10:55:14.821Z,4.55
2023-05-09T10:56:14.654Z,11.35
2023-05-09T10:57:14.649Z,10.15
2023-05-09T10:58:14.850Z,4.80
2023-05-09T10:59:14.667Z,3.48
2023-05-09T11:00:14.633Z,3.88
2023-05-09T11:01:14.615Z,9.43
2023-05-09T11:02:14.600Z,13.31
2023-05-09T11:03:14.859Z,14.84
2023-05-09T11:04:14.763Z,14.60
2023-05-09T11:05:14.943Z,15.03
2023-05-09T11:06:14.553Z,14.47
2023-05-09T11:07:14.544Z,11.43
2023-05-09T11:08:14.532Z,14.88
2023-05-09T11:09:14.522Z,14.27
2023-05-09T11:10:14.510Z,11.76
2023-05-09T11:11:14.501Z,6.92
2023-05-09T11:12:14.493Z,8.72
2023-05-09T11:13:14.487Z,14.15
2023-05-09T11:14:14.469Z,11.43
2023-05-09T11:15:14.611Z,6.36
2023-05-09T11:16:14.463Z,8.56
2023-05-09T11:17:14.447Z,8.07
2023-05-09T11:18:14.428Z,3.48
2023-05-09T11:19:14.422Z,8.07
2023-05-09T11:20:14.406Z,9.52
2023-05-09T11:21:14.528Z,11.84
2023-05-09T11:22:14.399Z,1.91
2023-05-09T11:23:14.375Z,0.96
2023-05-09T11:24:14.372Z,9.47
2023-05-09T11:25:14.642Z,11.60
2023-05-09T11:26:14.345Z,12.52
2023-05-09T11:27:14.338Z,12.11
2023-05-09T11:28:14.322Z,7.36
2023-05-09T11:29:14.313Z,7.48
2023-05-09T11:30:14.409Z,14.56
2023-05-09T11:31:14.297Z,15.27
2023-05-09T11:32:14.321Z,12.23
2023-05-09T11:33:14.272Z,8.39
2023-05-09T11:34:14.259Z,5.07
2023-05-09T11:35:14.576Z,6.63
2023-05-09T11:36:14.242Z,5.59
2023-05-09T11:37:14.385Z,11.35
2023-05-09T11:38:14.222Z,14.56
2023-05-09T11:39:14.232Z,10.92
2023-05-09T11:40:14.211Z,11.39
2023-05-09T11:41:14.188Z,11.43
2023-05-09T11:42:14.179Z,5.44
2023-05-09T11:43:14.377Z,13.31
2023-05-09T11:44:14.359Z,14.72
2023-05-09T11:45:14.345Z,14.47
2023-05-09T11:46:14.162Z,11.84
2023-05-09T11:47:14.129Z,11.84
2023-05-09T11:48:14.114Z,14.68
2023-05-09T11:49:14.303Z,14.96
2023-05-09T11:50:14.126Z,13.76
2023-05-09T11:51:14.093Z,8.68
2023-05-09T11:52:14.078Z,14.96
2023-05-09T11:53:14.175Z,9.92
2023-05-09T11:54:14.053Z,8.19
2023-05-09T11:55:14.482Z,10.35
2023-05-09T11:56:14.030Z,9.92
2023-05-09T11:57:14.028Z,6.23
2023-05-09T11:58:14.010Z,7.44
2023-05-09T11:59:14.212Z,17.07
2023-05-09T12:00:14.185Z,6.23
2023-05-09T12:01:13.984Z,7.80
2023-05-09T12:02:13.997Z,5.00
2023-05-09T12:03:14.083Z,5.80
2023-05-09T12:04:13.977Z,0.32
2023-05-09T12:05:14.168Z,5.76
2023-05-09T12:06:13.961Z,6.80
2023-05-09T12:07:13.909Z,5.11
2023-05-09T12:08:13.898Z,6.80
2023-05-09T12:09:14.004Z,4.80
2023-05-09T12:10:13.876Z,8.68
2023-05-09T12:11:13.878Z,11.80
2023-05-09T12:12:13.868Z,14.60
2023-05-09T12:13:13.899Z,12.92
2023-05-09T12:14:13.831Z,10.68
2023-05-09T12:15:14.418Z,14.03
2023-05-09T12:16:13.867Z,14.84
2023-05-09T12:17:13.815Z,13.84
2023-05-09T12:18:14.042Z,12.03
2023-05-09T12:19:13.775Z,6.59
2023-05-09T12:20:13.762Z,11.52
2023-05-09T12:21:13.756Z,10.88
2023-05-09T12:22:13.743Z,8.07
2023-05-09T12:23:13.733Z,13.72
2023-05-09T12:24:13.719Z,12.19
2023-05-09T12:25:14.131Z,9.03
2023-05-09T12:26:13.697Z,10.00
2023-05-09T12:27:13.713Z,5.55
2023-05-09T12:28:13.686Z,5.80
2023-05-09T12:29:13.670Z,12.64
2023-05-09T12:30:13.665Z,11.68
2023-05-09T12:31:13.667Z,10.19
2023-05-09T12:32:13.634Z,5.96
2023-05-09T12:33:13.630Z,8.56
2023-05-09T12:34:13.623Z,14.52
2023-05-09T12:35:13.779Z,14.07
2023-05-09T12:36:13.620Z,11.76
2023-05-09T12:37:13.585Z,15.96
2023-05-09T12:38:13.571Z,13.80
2023-05-09T12:39:13.573Z,12.35
2023-05-09T12:40:13.581Z,14.56
2023-05-09T12:41:30.254Z,15.11
2023-05-09T12:42:14.565Z,13.43
2023-05-09T12:43:13.543Z,11.80
2023-05-09T12:44:13.713Z,13.60
2023-05-09T12:45:13.901Z,9.07
2023-05-09T12:46:13.513Z,11.60
2023-05-09T12:47:13.599Z,12.11
2023-05-09T12:48:13.472Z,14.52
2023-05-09T12:49:13.471Z,10.27
2023-05-09T12:50:13.577Z,7.15
2023-05-09T12:51:13.435Z,13.96
2023-05-09T12:52:13.427Z,10.15
2023-05-09T12:53:13.414Z,12.47
2023-05-09T12:54:13.418Z,12.88
2023-05-09T12:55:13.536Z,11.31
2023-05-09T12:56:13.384Z,8.64
2023-05-09T12:57:13.496Z,9.47
2023-05-09T12:58:13.361Z,9.96
2023-05-09T12:59:13.353Z,10.11
2023-05-09T13:00:13.382Z,8.43
2023-05-09T13:01:13.417Z,8.84
2023-05-09T13:02:13.357Z,12.19
2023-05-09T13:03:13.335Z,11.07
2023-05-09T13:04:13.306Z,13.03
2023-05-09T13:05:13.604Z,9.35
2023-05-09T13:06:13.275Z,8.56
2023-05-09T13:07:13.279Z,7.55
2023-05-09T13:08:13.254Z,13.68
2023-05-09T13:09:13.249Z,14.72
2023-05-09T13:10:13.318Z,12.39
2023-05-09T13:11:16.511Z,14.39
2023-05-09T13:12:13.222Z,10.11
2023-05-09T13:13:13.370Z,8.11
2023-05-09T13:14:13.195Z,14.84
2023-05-09T13:15:13.648Z,14.88
2023-05-09T13:16:15.000Z,12.31
2023-05-09T13:17:13.352Z,13.64
2023-05-09T13:18:13.190Z,12.72
2023-05-09T13:19:13.142Z,14.23
2023-05-09T13:20:13.511Z,9.80
2023-05-09T13:21:13.114Z,11.23
2023-05-09T13:22:13.114Z,13.72
2023-05-09T13:23:13.096Z,11.35
2023-05-09T13:24:13.097Z,8.84
2023-05-09T13:25:13.106Z,12.60
2023-05-09T13:26:13.086Z,14.19
2023-05-09T13:27:13.267Z,13.84
2023-05-09T13:28:13.048Z,13.80
2023-05-09T13:29:13.149Z,14.88
2023-05-09T13:30:13.212Z,11.96
2023-05-09T13:31:13.095Z,13.88
2023-05-09T13:32:13.010Z,14.03
2023-05-09T13:33:25.126Z,13.31
2023-05-09T13:34:14.011Z,13.27
2023-05-09T13:35:12.979Z,13.52
2023-05-09T13:36:12.984Z,9.76
2023-05-09T13:37:12.960Z,15.60
2023-05-09T13:38:12.951Z,15.15
2023-05-09T13:39:12.938Z,12.39
2023-05-09T13:40:13.187Z,14.56
2023-05-09T13:41:13.109Z,11.07
2023-05-09T13:42:12.911Z,13.56
2023-05-09T13:43:12.887Z,13.47
2023-05-09T13:44:12.878Z,4.07
2023-05-09T13:45:13.340Z,1.27
2023-05-09T13:46:12.898Z,8.56
2023-05-09T13:47:12.846Z,7.00
2023-05-09T13:48:12.887Z,11.84
2023-05-09T13:49:12.821Z,12.80
2023-05-09T13:50:13.065Z,12.76
2023-05-09T13:51:12.796Z,12.88
2023-05-09T13:52:12.788Z,11.64
2023-05-09T13:53:12.777Z,7.19
2023-05-09T13:54:12.765Z,6.44
2023-05-09T13:55:46.723Z,0.12
2023-05-09T13:56:46.661Z,6.84
2023-05-09T13:57:46.655Z,5.11
2023-05-09T13:58:46.642Z,8.03
2023-05-09T13:59:46.637Z,9.15
2023-05-09T14:00:46.656Z,7.40
2023-05-09T14:01:46.677Z,5.92
2023-05-09T14:02:46.652Z,10.23
2023-05-09T14:04:46.578Z,6.52
2023-05-09T14:05:46.609Z,5.44
2023-05-09T14:06:46.553Z,6.48
2023-05-09T14:07:46.548Z,4.36
2023-05-09T14:08:46.541Z,8.68
2023-05-09T14:09:48.104Z,6.71
2023-05-09T14:10:46.512Z,10.64
2023-05-09T14:11:46.506Z,10.64
2023-05-09T14:12:46.511Z,10.68
2023-05-09T14:13:46.490Z,5.59
2023-05-09T14:14:46.508Z,4.67
2023-05-09T14:15:46.502Z,9.88
2023-05-09T14:16:46.587Z,4.11
2023-05-09T14:17:46.482Z,8.76
2023-05-09T14:18:46.430Z,6.71
2023-05-09T14:19:46.419Z,8.07
2023-05-09T14:20:46.434Z,7.84
2023-05-09T14:21:46.415Z,7.40
2023-05-09T14:22:46.401Z,6.76
2023-05-09T14:23:46.389Z,11.35
2023-05-09T14:24:46.385Z,7.76
2023-05-09T14:25:46.359Z,9.00
2023-05-09T14:26:46.347Z,6.36
2023-05-09T14:27:46.338Z,12.39
2023-05-09T14:28:46.326Z,7.44
2023-05-09T14:29:46.347Z,4.96
2023-05-09T14:30:46.307Z,0.04
2023-05-09T14:31:46.319Z,7.55
2023-05-09T14:32:46.396Z,11.31
2023-05-09T14:33:46.277Z,6.32
2023-05-09T14:34:46.303Z,10.76
2023-05-09T14:35:46.256Z,4.80
2023-05-09T14:36:46.248Z,5.59
2023-05-09T14:37:46.233Z,4.76
2023-05-09T14:38:46.222Z,7.92
2023-05-09T14:39:46.222Z,6.52
2023-05-09T14:40:46.210Z,5.76
2023-05-09T14:41:46.194Z,2.40
2023-05-09T14:42:46.185Z,7.40
2023-05-09T14:43:46.177Z,8.00
2023-05-09T14:44:46.158Z,4.32
2023-05-09T14:45:46.149Z,3.59
2023-05-09T14:46:46.208Z,5.84
2023-05-09T14:47:46.171Z,7.44
2023-05-09T14:48:46.439Z,7.28
2023-05-09T14:49:46.111Z,7.76
2023-05-09T14:50:46.098Z,6.11
2023-05-09T14:51:46.095Z,3.16
2023-05-09T14:52:46.077Z,1.84
2023-05-09T14:53:46.072Z,2.55
2023-05-09T14:54:46.085Z,5.55
2023-05-09T14:55:46.060Z,7.11
2023-05-09T14:56:46.056Z,3.48
2023-05-09T14:57:46.032Z,0.04
2023-05-09T14:58:46.009Z,0.04
2023-05-09T14:59:46.005Z,0.48
2023-05-09T15:00:46.031Z,3.72
2023-05-09T15:01:46.016Z,5.36
2023-05-09T15:02:46.035Z,6.96
2023-05-09T15:03:45.987Z,8.43
2023-05-09T15:04:46.069Z,1.67
2023-05-09T15:05:45.939Z,0.08
2023-05-09T15:06:45.925Z,0.00
2023-05-09T15:07:45.918Z,0.00
2023-05-09T15:08:45.907Z,1.27
2023-05-09T15:09:45.906Z,6.48
2023-05-09T15:10:45.886Z,6.84
2023-05-09T15:11:48.134Z,6.84
2023-05-09T15:12:45.880Z,1.44
2023-05-09T15:13:45.856Z,2.64
2023-05-09T15:14:45.844Z,0.72
2023-05-09T15:15:45.840Z,3.68
2023-05-09T15:16:45.906Z,0.64
2023-05-09T15:17:45.815Z,0.32
2023-05-09T15:18:45.799Z,0.08
2023-05-09T15:19:45.793Z,4.15
2023-05-09T15:20:45.906Z,5.44
2023-05-09T15:21:45.772Z,7.48
2023-05-09T15:22:45.797Z,4.96
2023-05-09T15:23:45.759Z,1.32
2023-05-09T15:24:45.742Z,0.08
2023-05-09T15:25:45.730Z,0.08
2023-05-09T15:26:45.715Z,0.00
2023-05-09T15:27:45.707Z,2.16
2023-05-09T15:28:45.692Z,0.16
2023-05-09T15:29:45.686Z,2.24
2023-05-09T15:30:45.884Z,3.92
2023-05-09T15:31:45.660Z,8.88
2023-05-09T15:32:45.683Z,6.67
2023-05-09T15:33:45.642Z,3.27
2023-05-09T15:34:45.635Z,0.04
2023-05-09T15:35:45.621Z,3.11
2023-05-09T15:36:45.731Z,4.63
2023-05-09T15:37:45.639Z,0.48
2023-05-09T15:38:45.593Z,0.00
2023-05-09T15:39:45.593Z,3.44
2023-05-09T15:40:45.571Z,2.88
2023-05-09T15:41:45.576Z,1.24
2023-05-09T15:42:45.551Z,1.15
2023-05-09T15:43:45.541Z,0.00
2023-05-09T15:44:45.731Z,6.96
2023-05-09T15:45:45.850Z,2.07
2023-05-09T15:46:45.518Z,0.64
2023-05-09T15:47:45.558Z,3.76
2023-05-09T15:48:45.489Z,1.84
2023-05-09T15:49:45.476Z,2.16
2023-05-09T15:50:45.469Z,1.88
2023-05-09T15:51:45.468Z,2.83
2023-05-09T15:52:45.576Z,5.92
2023-05-09T15:53:45.445Z,7.03
2023-05-09T15:54:45.565Z,6.88
2023-05-09T15:55:45.418Z,2.48
2023-05-09T15:56:45.404Z,9.84
2023-05-09T15:57:45.393Z,2.88
2023-05-09T15:58:45.383Z,0.00
2023-05-09T15:59:45.375Z,0.00
2023-05-09T16:00:45.380Z,0.00
2023-05-09T16:01:45.381Z,0.00
2023-05-09T16:02:45.490Z,0.00
2023-05-09T16:03:45.458Z,0.00
2023-05-09T16:04:45.321Z,0.00
2023-05-09T16:05:45.350Z,0.04
2023-05-09T16:06:45.303Z,0.04
2023-05-09T16:07:45.296Z,0.04
2023-05-09T16:08:45.405Z,0.08
2023-05-09T16:09:45.271Z,0.04
2023-05-09T16:10:45.261Z,0.00
2023-05-09T16:11:45.255Z,0.00
2023-05-09T16:12:45.279Z,0.00
2023-05-09T16:13:45.229Z,0.04
2023-05-09T16:14:45.216Z,0.04
2023-05-09T16:15:45.263Z,0.00
2023-05-09T16:16:45.195Z,0.08
2023-05-09T16:17:45.197Z,0.00
2023-05-09T16:18:45.186Z,0.00
2023-05-09T16:19:45.176Z,0.00
2023-05-09T16:20:45.154Z,0.00
2023-05-09T16:21:45.183Z,0.04
2023-05-09T16:22:45.133Z,0.52
2023-05-09T16:23:45.122Z,0.00
2023-05-09T16:24:45.248Z,0.00
2023-05-09T16:25:45.130Z,0.00
2023-05-09T16:26:45.091Z,0.16
2023-05-09T16:27:45.083Z,0.08
2023-05-09T16:28:45.069Z,0.00
2023-05-09T16:29:45.060Z,0.00
2023-05-09T16:30:45.049Z,0.00
2023-05-09T16:31:45.159Z,0.00
2023-05-09T16:32:45.066Z,1.36
2023-05-09T16:33:45.018Z,0.08
2023-05-09T16:34:45.003Z,0.08
2023-05-09T16:35:45.000Z,0.00
2023-05-09T16:36:44.998Z,0.00
2023-05-09T16:37:44.989Z,2.00
2023-05-09T16:38:44.961Z,0.28
2023-05-09T16:39:44.960Z,0.04
2023-05-09T16:40:45.053Z,0.00
2023-05-09T16:41:44.932Z,2.59
2023-05-09T16:42:44.921Z,0.76
2023-05-09T16:43:44.912Z,1.84
2023-05-09T16:44:44.903Z,0.08
2023-05-09T16:45:44.917Z,0.04
2023-05-09T16:46:44.877Z,0.00
2023-05-09T16:47:44.884Z,0.04
2023-05-09T16:48:44.864Z,0.00
2023-05-09T16:49:44.859Z,0.00